sensor_id;sensor_type;location;lat;lon;timestamp;pressure;altitude;pressure_sealevel;temperature;humidity
6464;BME280;3265;42.694;23.282;2023-02-08T00:00:23;96134.63;;;-4.89;88.86
6464;BME280;3265;42.694;23.282;2023-02-08T00:02:50;96124.94;;;-4.97;89.84
6464;BME280;3265;42.694;23.282;2023-02-08T00:05:18;96136.22;;;-5.02;90.35
6464;BME280;3265;42.694;23.282;2023-02-08T00:07:44;96129.06;;;-4.96;90.44
6464;BME280;3265;42.694;23.282;2023-02-08T00:10:11;96138.34;;;-4.81;90.46
6464;BME280;3265;42.694;23.282;2023-02-08T00:12:38;96137.53;;;-4.67;89.14
6464;BME280;3265;42.694;23.282;2023-02-08T00:15:07;96139.34;;;-4.55;88.12
6464;BME280;3265;42.694;23.282;2023-02-08T00:17:34;96151.16;;;-4.40;87.55
6464;BME280;3265;42.694;23.282;2023-02-08T00:20:01;96150.78;;;-4.34;86.28
6464;BME280;3265;42.694;23.282;2023-02-08T00:22:27;96153.84;;;-4.29;86.47
6464;BME280;3265;42.694;23.282;2023-02-08T00:24:54;96154.22;;;-4.35;86.35
6464;BME280;3265;42.694;23.282;2023-02-08T00:27:21;96156.41;;;-4.29;85.41
6464;BME280;3265;42.694;23.282;2023-02-08T00:29:48;96160.22;;;-4.22;85.68
6464;BME280;3265;42.694;23.282;2023-02-08T00:32:16;96157.31;;;-4.16;85.09
6464;BME280;3265;42.694;23.282;2023-02-08T00:34:43;96166.47;;;-4.13;85.16
6464;BME280;3265;42.694;23.282;2023-02-08T00:37:10;96171.78;;;-4.04;84.66
6464;BME280;3265;42.694;23.282;2023-02-08T00:39:37;96180.22;;;-4.03;84.45
6464;BME280;3265;42.694;23.282;2023-02-08T00:42:04;96188.53;;;-4.01;83.89
6464;BME280;3265;42.694;23.282;2023-02-08T00:44:30;96183.09;;;-3.95;83.33
6464;BME280;3265;42.694;23.282;2023-02-08T00:46:57;96190.00;;;-3.97;84.26
6464;BME280;3265;42.694;23.282;2023-02-08T00:49:25;96169.00;;;-4.13;84.19
6464;BME280;3265;42.694;23.282;2023-02-08T00:51:52;96183.22;;;-3.96;84.22
6464;BME280;3265;42.694;23.282;2023-02-08T00:54:20;96190.47;;;-3.90;83.93
6464;BME280;3265;42.694;23.282;2023-02-08T00:56:47;96184.63;;;-3.92;83.92
6464;BME280;3265;42.694;23.282;2023-02-08T00:59:13;96187.75;;;-3.87;84.13
6464;BME280;3265;42.694;23.282;2023-02-08T01:01:40;96186.03;;;-3.87;83.95
6464;BME280;3265;42.694;23.282;2023-02-08T01:04:07;96181.94;;;-4.04;83.94
6464;BME280;3265;42.694;23.282;2023-02-08T01:06:36;96185.66;;;-4.23;85.51
6464;BME280;3265;42.694;23.282;2023-02-08T01:09:02;96184.00;;;-4.52;86.50
6464;BME280;3265;42.694;23.282;2023-02-08T01:11:29;96182.63;;;-4.72;89.20
6464;BME280;3265;42.694;23.282;2023-02-08T01:13:56;96178.09;;;-4.67;89.39
6464;BME280;3265;42.694;23.282;2023-02-08T01:16:25;96181.75;;;-4.57;89.05
6464;BME280;3265;42.694;23.282;2023-02-08T01:18:53;96182.94;;;-4.48;88.78
6464;BME280;3265;42.694;23.282;2023-02-08T01:21:22;96185.28;;;-4.45;88.60
6464;BME280;3265;42.694;23.282;2023-02-08T01:23:51;96181.94;;;-4.32;88.32
6464;BME280;3265;42.694;23.282;2023-02-08T01:26:19;96165.53;;;-4.40;87.88
6464;BME280;3265;42.694;23.282;2023-02-08T01:28:47;96163.38;;;-4.32;87.57
6464;BME280;3265;42.694;23.282;2023-02-08T01:31:17;96179.50;;;-4.19;87.73
6464;BME280;3265;42.694;23.282;2023-02-08T01:33:44;96163.66;;;-4.23;86.96
6464;BME280;3265;42.694;23.282;2023-02-08T01:36:11;96178.03;;;-4.09;87.11
6464;BME280;3265;42.694;23.282;2023-02-08T01:38:38;96168.06;;;-4.12;86.00
6464;BME280;3265;42.694;23.282;2023-02-08T01:41:12;96186.94;;;-4.02;85.91
6464;BME280;3265;42.694;23.282;2023-02-08T01:43:59;96187.56;;;-3.98;85.83
6464;BME280;3265;42.694;23.282;2023-02-08T01:46:26;96184.22;;;-3.99;85.91
6464;BME280;3265;42.694;23.282;2023-02-08T01:48:53;96177.88;;;-4.06;86.33
6464;BME280;3265;42.694;23.282;2023-02-08T01:51:25;96173.72;;;-4.07;87.05
6464;BME280;3265;42.694;23.282;2023-02-08T01:53:54;96186.47;;;-4.09;87.04
6464;BME280;3265;42.694;23.282;2023-02-08T01:56:29;96189.31;;;-4.27;88.09
6464;BME280;3265;42.694;23.282;2023-02-08T01:59:00;96182.59;;;-4.28;88.99
6464;BME280;3265;42.694;23.282;2023-02-08T02:01:30;96190.03;;;-4.25;89.12
6464;BME280;3265;42.694;23.282;2023-02-08T02:03:59;96190.25;;;-4.44;89.54
6464;BME280;3265;42.694;23.282;2023-02-08T02:06:30;96187.13;;;-4.33;89.37
6464;BME280;3265;42.694;23.282;2023-02-08T02:09:04;96194.63;;;-4.32;89.53
6464;BME280;3265;42.694;23.282;2023-02-08T02:11:37;96197.00;;;-4.29;89.01
6464;BME280;3265;42.694;23.282;2023-02-08T02:14:04;96194.09;;;-4.23;89.58
6464;BME280;3265;42.694;23.282;2023-02-08T02:16:31;96199.06;;;-4.35;89.62
6464;BME280;3265;42.694;23.282;2023-02-08T02:18:58;96205.31;;;-4.41;90.72
6464;BME280;3265;42.694;23.282;2023-02-08T02:21:38;96208.84;;;-4.43;91.40
6464;BME280;3265;42.694;23.282;2023-02-08T02:27:24;96205.38;;;-4.71;94.07
6464;BME280;3265;42.694;23.282;2023-02-08T02:30:23;96208.78;;;-4.72;94.51
6464;BME280;3265;42.694;23.282;2023-02-08T02:33:06;96211.69;;;-4.64;94.17
6464;BME280;3265;42.694;23.282;2023-02-08T02:35:45;96214.72;;;-4.57;94.61
6464;BME280;3265;42.694;23.282;2023-02-08T02:38:25;96222.75;;;-4.65;95.40
6464;BME280;3265;42.694;23.282;2023-02-08T02:41:04;96215.69;;;-4.74;95.82
6464;BME280;3265;42.694;23.282;2023-02-08T02:43:41;96219.72;;;-4.85;96.89
6464;BME280;3265;42.694;23.282;2023-02-08T02:46:21;96223.31;;;-4.89;98.03
6464;BME280;3265;42.694;23.282;2023-02-08T02:48:56;96221.44;;;-4.86;98.37
6464;BME280;3265;42.694;23.282;2023-02-08T02:51:30;96219.41;;;-4.95;98.65
6464;BME280;3265;42.694;23.282;2023-02-08T02:54:01;96226.22;;;-4.81;98.63
6464;BME280;3265;42.694;23.282;2023-02-08T02:56:34;96220.47;;;-4.69;98.63
6464;BME280;3265;42.694;23.282;2023-02-08T02:59:05;96219.84;;;-4.59;97.74
6464;BME280;3265;42.694;23.282;2023-02-08T03:01:34;96222.69;;;-4.49;97.82
6464;BME280;3265;42.694;23.282;2023-02-08T03:04:12;96229.69;;;-4.38;97.82
6464;BME280;3265;42.694;23.282;2023-02-08T03:06:50;96224.72;;;-4.26;97.98
6464;BME280;3265;42.694;23.282;2023-02-08T03:09:34;96242.66;;;-4.15;97.08
6464;BME280;3265;42.694;23.282;2023-02-08T03:12:14;96243.13;;;-4.08;96.37
6464;BME280;3265;42.694;23.282;2023-02-08T03:14:52;96246.50;;;-4.08;96.46
6464;BME280;3265;42.694;23.282;2023-02-08T03:17:41;96245.31;;;-4.16;96.32
6464;BME280;3265;42.694;23.282;2023-02-08T03:20:17;96233.03;;;-4.24;96.66
6464;BME280;3265;42.694;23.282;2023-02-08T03:22:55;96231.00;;;-4.61;97.79
6464;BME280;3265;42.694;23.282;2023-02-08T03:25:27;96234.63;;;-4.65;98.42
6464;BME280;3265;42.694;23.282;2023-02-08T03:28:03;96229.38;;;-4.62;99.36
6464;BME280;3265;42.694;23.282;2023-02-08T03:30:36;96225.69;;;-4.56;99.45
6464;BME280;3265;42.694;23.282;2023-02-08T03:33:13;96226.88;;;-4.48;98.67
6464;BME280;3265;42.694;23.282;2023-02-08T03:35:47;96226.63;;;-4.73;98.24
6464;BME280;3265;42.694;23.282;2023-02-08T03:38:19;96220.72;;;-4.88;100.00
6464;BME280;3265;42.694;23.282;2023-02-08T03:40:51;96220.09;;;-4.77;100.00
6464;BME280;3265;42.694;23.282;2023-02-08T03:43:22;96218.63;;;-4.81;100.00
6464;BME280;3265;42.694;23.282;2023-02-08T03:45:51;96224.97;;;-4.88;100.00
6464;BME280;3265;42.694;23.282;2023-02-08T03:48:21;96231.91;;;-4.92;100.00
6464;BME280;3265;42.694;23.282;2023-02-08T03:50:52;96228.03;;;-4.83;100.00
6464;BME280;3265;42.694;23.282;2023-02-08T03:53:22;96230.53;;;-4.68;100.00
6464;BME280;3265;42.694;23.282;2023-02-08T03:55:53;96224.91;;;-4.73;100.00
6464;BME280;3265;42.694;23.282;2023-02-08T03:58:24;96209.06;;;-4.76;100.00
6464;BME280;3265;42.694;23.282;2023-02-08T04:00:57;96230.59;;;-4.53;100.00
6464;BME280;3265;42.694;23.282;2023-02-08T04:03:29;96232.84;;;-4.49;100.00
6464;BME280;3265;42.694;23.282;2023-02-08T04:05:58;96234.47;;;-4.48;99.15
6464;BME280;3265;42.694;23.282;2023-02-08T04:08:26;96230.94;;;-4.60;99.76
6464;BME280;3265;42.694;23.282;2023-02-08T04:10:53;96235.91;;;-4.58;99.87
6464;BME280;3265;42.694;23.282;2023-02-08T04:13:20;96244.69;;;-4.49;100.00
6464;BME280;3265;42.694;23.282;2023-02-08T04:15:46;96243.28;;;-4.39;100.00
6464;BME280;3265;42.694;23.282;2023-02-08T04:18:13;96249.56;;;-4.31;99.04
6464;BME280;3265;42.694;23.282;2023-02-08T04:20:40;96247.19;;;-4.20;98.77
6464;BME280;3265;42.694;23.282;2023-02-08T04:23:08;96250.28;;;-4.15;98.52
6464;BME280;3265;42.694;23.282;2023-02-08T04:25:35;96259.19;;;-4.08;96.32
6464;BME280;3265;42.694;23.282;2023-02-08T04:28:02;96255.34;;;-4.01;95.24
6464;BME280;3265;42.694;23.282;2023-02-08T04:30:28;96264.69;;;-4.01;94.99
6464;BME280;3265;42.694;23.282;2023-02-08T04:32:55;96264.06;;;-4.05;93.82
6464;BME280;3265;42.694;23.282;2023-02-08T04:35:22;96258.88;;;-4.17;92.96
6464;BME280;3265;42.694;23.282;2023-02-08T04:37:49;96265.31;;;-4.12;92.91
6464;BME280;3265;42.694;23.282;2023-02-08T04:40:17;96265.31;;;-4.12;93.13
6464;BME280;3265;42.694;23.282;2023-02-08T04:42:44;96268.50;;;-4.08;92.95
6464;BME280;3265;42.694;23.282;2023-02-08T04:45:11;96260.78;;;-4.07;92.27
6464;BME280;3265;42.694;23.282;2023-02-08T04:47:38;96255.63;;;-4.19;91.80
6464;BME280;3265;42.694;23.282;2023-02-08T04:50:05;96253.44;;;-4.25;91.28
6464;BME280;3265;42.694;23.282;2023-02-08T04:52:32;96268.41;;;-4.21;91.54
6464;BME280;3265;42.694;23.282;2023-02-08T04:54:59;96270.22;;;-4.52;93.03
6464;BME280;3265;42.694;23.282;2023-02-08T04:57:27;96274.78;;;-5.03;93.49
6464;BME280;3265;42.694;23.282;2023-02-08T04:59:54;96279.84;;;-5.34;96.72
6464;BME280;3265;42.694;23.282;2023-02-08T05:02:21;96284.25;;;-5.22;97.13
6464;BME280;3265;42.694;23.282;2023-02-08T05:04:47;96292.50;;;-5.19;97.58
6464;BME280;3265;42.694;23.282;2023-02-08T05:07:14;96304.63;;;-5.08;97.23
6464;BME280;3265;42.694;23.282;2023-02-08T05:09:41;96310.09;;;-5.00;96.97
6464;BME280;3265;42.694;23.282;2023-02-08T05:12:08;96313.41;;;-4.84;96.23
6464;BME280;3265;42.694;23.282;2023-02-08T05:14:36;96312.81;;;-4.73;95.31
6464;BME280;3265;42.694;23.282;2023-02-08T05:17:02;96307.56;;;-4.70;94.31
6464;BME280;3265;42.694;23.282;2023-02-08T05:19:29;96317.31;;;-4.63;93.90
6464;BME280;3265;42.694;23.282;2023-02-08T05:21:56;96319.75;;;-4.61;94.42
6464;BME280;3265;42.694;23.282;2023-02-08T05:24:23;96322.03;;;-4.56;94.06
6464;BME280;3265;42.694;23.282;2023-02-08T05:26:50;96319.41;;;-4.55;94.22
6464;BME280;3265;42.694;23.282;2023-02-08T05:29:17;96325.84;;;-4.49;93.79
6464;BME280;3265;42.694;23.282;2023-02-08T05:31:45;96327.41;;;-4.47;92.94
6464;BME280;3265;42.694;23.282;2023-02-08T05:34:12;96320.78;;;-4.49;93.53
6464;BME280;3265;42.694;23.282;2023-02-08T05:36:39;96332.13;;;-4.41;92.36
6464;BME280;3265;42.694;23.282;2023-02-08T05:39:06;96333.59;;;-4.37;91.42
6464;BME280;3265;42.694;23.282;2023-02-08T05:41:32;96335.31;;;-4.37;92.06
6464;BME280;3265;42.694;23.282;2023-02-08T05:43:59;96338.34;;;-4.31;91.25
6464;BME280;3265;42.694;23.282;2023-02-08T05:46:26;96348.50;;;-4.31;90.33
6464;BME280;3265;42.694;23.282;2023-02-08T05:48:57;96344.81;;;-4.41;90.81
6464;BME280;3265;42.694;23.282;2023-02-08T05:51:24;96342.63;;;-4.47;91.02
6464;BME280;3265;42.694;23.282;2023-02-08T05:53:51;96344.97;;;-4.44;92.06
6464;BME280;3265;42.694;23.282;2023-02-08T05:56:20;96346.34;;;-4.38;91.01
6464;BME280;3265;42.694;23.282;2023-02-08T05:58:47;96347.19;;;-4.38;91.07
6464;BME280;3265;42.694;23.282;2023-02-08T06:01:14;96352.63;;;-4.30;91.18
6464;BME280;3265;42.694;23.282;2023-02-08T06:03:41;96350.53;;;-4.37;90.93
6464;BME280;3265;42.694;23.282;2023-02-08T06:06:09;96349.72;;;-4.38;91.96
6464;BME280;3265;42.694;23.282;2023-02-08T06:08:36;96343.59;;;-4.34;92.55
6464;BME280;3265;42.694;23.282;2023-02-08T06:11:04;96346.34;;;-4.23;91.84
6464;BME280;3265;42.694;23.282;2023-02-08T06:13:31;96349.34;;;-4.16;92.04
6464;BME280;3265;42.694;23.282;2023-02-08T06:15:58;96348.34;;;-4.14;91.61
6464;BME280;3265;42.694;23.282;2023-02-08T06:18:25;96351.13;;;-4.18;92.00
6464;BME280;3265;42.694;23.282;2023-02-08T06:20:52;96348.00;;;-4.08;92.60
6464;BME280;3265;42.694;23.282;2023-02-08T06:23:21;96346.91;;;-4.04;91.81
6464;BME280;3265;42.694;23.282;2023-02-08T06:25:48;96346.56;;;-3.97;91.56
6464;BME280;3265;42.694;23.282;2023-02-08T06:28:14;96362.13;;;-4.04;90.20
6464;BME280;3265;42.694;23.282;2023-02-08T06:30:42;96359.06;;;-4.09;90.62
6464;BME280;3265;42.694;23.282;2023-02-08T06:33:09;96367.22;;;-4.04;90.62
6464;BME280;3265;42.694;23.282;2023-02-08T06:35:36;96358.22;;;-4.09;91.48
6464;BME280;3265;42.694;23.282;2023-02-08T06:38:02;96356.88;;;-4.01;91.89
6464;BME280;3265;42.694;23.282;2023-02-08T06:40:30;96360.19;;;-3.98;91.60
6464;BME280;3265;42.694;23.282;2023-02-08T06:42:57;96361.16;;;-4.01;92.01
6464;BME280;3265;42.694;23.282;2023-02-08T06:45:24;96362.72;;;-3.98;92.14
6464;BME280;3265;42.694;23.282;2023-02-08T06:47:51;96374.25;;;-3.93;91.51
6464;BME280;3265;42.694;23.282;2023-02-08T06:50:18;96367.06;;;-3.86;91.00
6464;BME280;3265;42.694;23.282;2023-02-08T06:52:45;96372.38;;;-3.75;89.46
6464;BME280;3265;42.694;23.282;2023-02-08T06:55:12;96376.53;;;-3.74;88.34
6464;BME280;3265;42.694;23.282;2023-02-08T06:57:40;96376.09;;;-3.67;86.95
6464;BME280;3265;42.694;23.282;2023-02-08T07:00:08;96376.44;;;-3.73;86.58
6464;BME280;3265;42.694;23.282;2023-02-08T07:02:35;96380.59;;;-3.72;87.09
6464;BME280;3265;42.694;23.282;2023-02-08T07:05:02;96384.50;;;-3.66;86.95
6464;BME280;3265;42.694;23.282;2023-02-08T07:07:29;96379.25;;;-3.63;87.11
6464;BME280;3265;42.694;23.282;2023-02-08T07:09:56;96381.78;;;-3.63;86.30
6464;BME280;3265;42.694;23.282;2023-02-08T07:12:23;96383.16;;;-3.58;85.82
6464;BME280;3265;42.694;23.282;2023-02-08T07:14:51;96385.09;;;-3.61;83.81
6464;BME280;3265;42.694;23.282;2023-02-08T07:17:17;96395.78;;;-3.56;84.28
6464;BME280;3265;42.694;23.282;2023-02-08T07:19:44;96393.44;;;-3.45;83.52
6464;BME280;3265;42.694;23.282;2023-02-08T07:22:11;96400.16;;;-3.44;82.72
6464;BME280;3265;42.694;23.282;2023-02-08T07:24:39;96402.41;;;-3.54;81.67
6464;BME280;3265;42.694;23.282;2023-02-08T07:27:08;96408.13;;;-3.50;81.65
6464;BME280;3265;42.694;23.282;2023-02-08T07:29:35;96412.41;;;-3.51;80.65
6464;BME280;3265;42.694;23.282;2023-02-08T07:32:04;96414.91;;;-3.65;80.83
6464;BME280;3265;42.694;23.282;2023-02-08T07:34:32;96409.66;;;-3.62;80.85
6464;BME280;3265;42.694;23.282;2023-02-08T07:37:02;96413.19;;;-3.64;80.74
6464;BME280;3265;42.694;23.282;2023-02-08T07:39:29;96411.28;;;-3.61;81.14
6464;BME280;3265;42.694;23.282;2023-02-08T07:41:56;96416.56;;;-3.50;80.94
6464;BME280;3265;42.694;23.282;2023-02-08T07:44:23;96424.75;;;-3.45;80.72
6464;BME280;3265;42.694;23.282;2023-02-08T07:46:50;96430.00;;;-3.33;80.00
6464;BME280;3265;42.694;23.282;2023-02-08T07:49:18;96420.84;;;-3.22;79.58
6464;BME280;3265;42.694;23.282;2023-02-08T07:51:45;96428.00;;;-3.14;79.00
6464;BME280;3265;42.694;23.282;2023-02-08T07:54:12;96437.28;;;-2.99;79.26
6464;BME280;3265;42.694;23.282;2023-02-08T07:56:38;96435.56;;;-2.99;78.26
6464;BME280;3265;42.694;23.282;2023-02-08T07:59:05;96431.75;;;-2.92;77.44
6464;BME280;3265;42.694;23.282;2023-02-08T08:01:32;96428.81;;;-2.86;nan
6464;BME280;3265;42.694;23.282;2023-02-08T08:03:59;96436.19;;;-2.81;78.02
6464;BME280;3265;42.694;23.282;2023-02-08T08:06:27;96431.00;;;-2.79;77.29
6464;BME280;3265;42.694;23.282;2023-02-08T08:08:54;96422.34;;;-2.77;77.69
6464;BME280;3265;42.694;23.282;2023-02-08T08:11:21;96418.22;;;-2.92;76.85
6464;BME280;3265;42.694;23.282;2023-02-08T08:13:49;96423.03;;;-3.16;77.01
6464;BME280;3265;42.694;23.282;2023-02-08T08:16:16;96403.25;;;-3.39;78.69
6464;BME280;3265;42.694;23.282;2023-02-08T08:18:43;96408.16;;;-3.80;80.31
6464;BME280;3265;42.694;23.282;2023-02-08T08:21:10;96413.91;;;-3.76;80.49
6464;BME280;3265;42.694;23.282;2023-02-08T08:23:39;96409.38;;;-3.71;80.53
6464;BME280;3265;42.694;23.282;2023-02-08T08:26:07;96418.53;;;-3.55;80.06
6464;BME280;3265;42.694;23.282;2023-02-08T08:28:34;96429.72;;;-3.43;79.81
6464;BME280;3265;42.694;23.282;2023-02-08T08:31:01;96404.06;;;-3.38;79.61
6464;BME280;3265;42.694;23.282;2023-02-08T08:33:28;96419.66;;;-3.16;80.00
6464;BME280;3265;42.694;23.282;2023-02-08T08:35:54;96412.03;;;-3.02;79.65
6464;BME280;3265;42.694;23.282;2023-02-08T08:38:21;96424.13;;;-2.92;78.40
6464;BME280;3265;42.694;23.282;2023-02-08T08:40:49;96429.44;;;-2.82;79.21
6464;BME280;3265;42.694;23.282;2023-02-08T08:43:16;96430.16;;;-2.66;79.37
6464;BME280;3265;42.694;23.282;2023-02-08T08:45:43;96424.41;;;-2.55;77.62
6464;BME280;3265;42.694;23.282;2023-02-08T08:48:10;96416.59;;;-2.52;79.05
6464;BME280;3265;42.694;23.282;2023-02-08T08:50:37;96436.53;;;-2.32;78.71
6464;BME280;3265;42.694;23.282;2023-02-08T08:53:07;96423.00;;;-2.33;77.65
6464;BME280;3265;42.694;23.282;2023-02-08T08:55:34;96436.78;;;-2.22;78.07
6464;BME280;3265;42.694;23.282;2023-02-08T08:58:03;96437.13;;;-2.14;76.85
6464;BME280;3265;42.694;23.282;2023-02-08T09:00:29;96444.44;;;-2.10;76.66
6464;BME280;3265;42.694;23.282;2023-02-08T09:02:56;96446.09;;;-2.36;76.58
6464;BME280;3265;42.694;23.282;2023-02-08T09:05:23;96430.41;;;-2.56;77.31
6464;BME280;3265;42.694;23.282;2023-02-08T09:07:50;96438.31;;;-2.47;78.44
6464;BME280;3265;42.694;23.282;2023-02-08T09:10:16;96442.72;;;-2.36;76.42
6464;BME280;3265;42.694;23.282;2023-02-08T09:12:44;96446.94;;;-2.49;75.51
6464;BME280;3265;42.694;23.282;2023-02-08T09:15:12;96439.97;;;-2.60;77.07
6464;BME280;3265;42.694;23.282;2023-02-08T09:17:39;96445.41;;;-2.52;76.89
6464;BME280;3265;42.694;23.282;2023-02-08T09:20:06;96452.28;;;-2.54;77.28
6464;BME280;3265;42.694;23.282;2023-02-08T09:22:33;96451.25;;;-2.64;77.25
6464;BME280;3265;42.694;23.282;2023-02-08T09:25:00;96450.59;;;-2.67;77.41
6464;BME280;3265;42.694;23.282;2023-02-08T09:27:27;96442.47;;;-2.87;79.43
6464;BME280;3265;42.694;23.282;2023-02-08T09:29:54;96451.75;;;-2.45;79.63
6464;BME280;3265;42.694;23.282;2023-02-08T09:32:22;96446.22;;;-1.71;75.48
6464;BME280;3265;42.694;23.282;2023-02-08T09:34:49;96455.63;;;-1.59;73.98
6464;BME280;3265;42.694;23.282;2023-02-08T09:37:16;96459.41;;;-1.39;72.76
6464;BME280;3265;42.694;23.282;2023-02-08T09:39:43;96454.13;;;-0.98;72.68
6464;BME280;3265;42.694;23.282;2023-02-08T09:45:25;96451.00;;;0.18;65.72
6464;BME280;3265;42.694;23.282;2023-02-08T09:48:01;96454.00;;;1.04;63.46
6464;BME280;3265;42.694;23.282;2023-02-08T09:50:32;96459.84;;;1.50;61.36
6464;BME280;3265;42.694;23.282;2023-02-08T09:53:05;96456.34;;;1.51;61.06
6464;BME280;3265;42.694;23.282;2023-02-08T09:55:36;96461.06;;;1.89;61.13
6464;BME280;3265;42.694;23.282;2023-02-08T09:58:11;96441.56;;;2.61;58.38
6464;BME280;3265;42.694;23.282;2023-02-08T10:00:44;96453.91;;;3.18;56.78
6464;BME280;3265;42.694;23.282;2023-02-08T10:03:22;96463.06;;;3.72;54.12
6464;BME280;3265;42.694;23.282;2023-02-08T10:05:52;96454.81;;;3.78;53.58
6464;BME280;3265;42.694;23.282;2023-02-08T10:08:19;96448.44;;;2.61;55.86
6464;BME280;3265;42.694;23.282;2023-02-08T10:10:51;96451.31;;;2.47;55.93
6464;BME280;3265;42.694;23.282;2023-02-08T10:13:30;96439.91;;;2.60;55.92
6464;BME280;3265;42.694;23.282;2023-02-08T10:16:09;96428.78;;;2.50;54.71
6464;BME280;3265;42.694;23.282;2023-02-08T10:18:45;96446.72;;;3.12;55.10
6464;BME280;3265;42.694;23.282;2023-02-08T10:21:34;96448.41;;;3.63;53.82
6464;BME280;3265;42.694;23.282;2023-02-08T10:24:18;96443.59;;;3.88;53.08
6464;BME280;3265;42.694;23.282;2023-02-08T10:26:50;96451.53;;;3.66;51.97
6464;BME280;3265;42.694;23.282;2023-02-08T10:29:33;96445.69;;;2.73;52.16
6464;BME280;3265;42.694;23.282;2023-02-08T10:32:19;96446.97;;;2.26;53.67
6464;BME280;3265;42.694;23.282;2023-02-08T10:34:52;96453.38;;;1.89;54.37
6464;BME280;3265;42.694;23.282;2023-02-08T10:37:25;96449.50;;;1.41;55.79
6464;BME280;3265;42.694;23.282;2023-02-08T10:39:55;96448.69;;;1.18;56.84
6464;BME280;3265;42.694;23.282;2023-02-08T10:42:25;96438.66;;;0.93;57.64
6464;BME280;3265;42.694;23.282;2023-02-08T10:44:59;96444.81;;;0.79;58.59
6464;BME280;3265;42.694;23.282;2023-02-08T10:47:38;96436.66;;;0.74;58.40
6464;BME280;3265;42.694;23.282;2023-02-08T10:50:19;96433.84;;;0.66;59.58
6464;BME280;3265;42.694;23.282;2023-02-08T10:52:48;96438.00;;;0.56;59.20
6464;BME280;3265;42.694;23.282;2023-02-08T10:55:17;96443.38;;;0.29;60.72
6464;BME280;3265;42.694;23.282;2023-02-08T10:57:45;96443.38;;;0.29;60.74
6464;BME280;3265;42.694;23.282;2023-02-08T11:00:18;96446.94;;;0.16;61.72
6464;BME280;3265;42.694;23.282;2023-02-08T11:02:45;96435.59;;;-0.04;63.05
6464;BME280;3265;42.694;23.282;2023-02-08T11:05:17;96441.72;;;-0.07;64.02
6464;BME280;3265;42.694;23.282;2023-02-08T11:07:44;96438.09;;;-0.51;65.32
6464;BME280;3265;42.694;23.282;2023-02-08T11:10:29;96438.91;;;-0.87;67.20
6464;BME280;3265;42.694;23.282;2023-02-08T11:12:58;96442.88;;;-1.08;68.53
6464;BME280;3265;42.694;23.282;2023-02-08T11:15:28;96426.06;;;-1.11;69.20
6464;BME280;3265;42.694;23.282;2023-02-08T11:17:59;96441.66;;;-0.90;69.31
6464;BME280;3265;42.694;23.282;2023-02-08T11:20:32;96442.28;;;-0.50;67.87
6464;BME280;3265;42.694;23.282;2023-02-08T11:23:01;96450.19;;;-0.30;67.43
6464;BME280;3265;42.694;23.282;2023-02-08T11:25:34;96446.44;;;-0.37;66.65
6464;BME280;3265;42.694;23.282;2023-02-08T11:28:02;96445.72;;;-0.39;66.97
6464;BME280;3265;42.694;23.282;2023-02-08T11:30:30;96447.13;;;-0.59;67.30
6464;BME280;3265;42.694;23.282;2023-02-08T11:33:15;96449.47;;;-0.55;66.95
6464;BME280;3265;42.694;23.282;2023-02-08T11:35:52;96457.50;;;-0.13;66.13
6464;BME280;3265;42.694;23.282;2023-02-08T11:38:20;96448.59;;;0.17;65.75
6464;BME280;3265;42.694;23.282;2023-02-08T11:40:52;96454.91;;;0.35;65.27
6464;BME280;3265;42.694;23.282;2023-02-08T11:43:23;96457.06;;;0.17;65.67
6464;BME280;3265;42.694;23.282;2023-02-08T11:45:51;96428.91;;;-0.18;65.66
6464;BME280;3265;42.694;23.282;2023-02-08T11:48:22;96454.81;;;-0.11;65.43
6464;BME280;3265;42.694;23.282;2023-02-08T11:50:56;96451.44;;;-0.35;66.77
6464;BME280;3265;42.694;23.282;2023-02-08T11:53:27;96452.50;;;-0.50;67.29
6464;BME280;3265;42.694;23.282;2023-02-08T11:56:16;96453.13;;;-0.72;68.09
6464;BME280;3265;42.694;23.282;2023-02-08T11:58:59;96458.97;;;-0.70;68.14
6464;BME280;3265;42.694;23.282;2023-02-08T12:01:28;96450.16;;;-0.66;67.59
6464;BME280;3265;42.694;23.282;2023-02-08T12:03:57;96463.63;;;-0.15;67.13
6464;BME280;3265;42.694;23.282;2023-02-08T12:06:44;96453.19;;;0.12;65.93
6464;BME280;3265;42.694;23.282;2023-02-08T12:09:22;96449.44;;;0.05;64.33
6464;BME280;3265;42.694;23.282;2023-02-08T12:11:57;96456.63;;;-0.24;65.35
6464;BME280;3265;42.694;23.282;2023-02-08T12:14:41;96450.97;;;-0.53;67.59
6464;BME280;3265;42.694;23.282;2023-02-08T12:17:59;96456.84;;;-0.64;66.19
6464;BME280;3265;42.694;23.282;2023-02-08T12:20:36;96454.22;;;-0.51;66.43
6464;BME280;3265;42.694;23.282;2023-02-08T12:23:39;96449.03;;;-0.26;65.40
6464;BME280;3265;42.694;23.282;2023-02-08T12:26:17;96448.41;;;0.07;65.32
6464;BME280;3265;42.694;23.282;2023-02-08T12:28:55;96446.75;;;0.65;63.37
6464;BME280;3265;42.694;23.282;2023-02-08T12:31:41;96433.06;;;0.77;62.31
6464;BME280;3265;42.694;23.282;2023-02-08T12:34:16;96451.56;;;1.02;60.93
6464;BME280;3265;42.694;23.282;2023-02-08T12:37:08;96452.75;;;1.32;59.37
6464;BME280;3265;42.694;23.282;2023-02-08T12:40:06;96456.69;;;1.25;59.10
6464;BME280;3265;42.694;23.282;2023-02-08T12:43:03;96448.78;;;0.83;59.36
6464;BME280;3265;42.694;23.282;2023-02-08T12:46:10;96443.81;;;0.58;58.95
6464;BME280;3265;42.694;23.282;2023-02-08T12:49:04;96440.38;;;0.35;60.00
6464;BME280;3265;42.694;23.282;2023-02-08T12:51:39;96454.66;;;0.27;59.16
6464;BME280;3265;42.694;23.282;2023-02-08T12:54:11;96450.88;;;-0.15;58.65
6464;BME280;3265;42.694;23.282;2023-02-08T12:56:44;96458.47;;;-0.26;59.35
6464;BME280;3265;42.694;23.282;2023-02-08T12:59:20;96449.81;;;-0.49;60.67
6464;BME280;3265;42.694;23.282;2023-02-08T13:01:50;96459.03;;;-0.46;60.76
6464;BME280;3265;42.694;23.282;2023-02-08T13:04:22;96456.69;;;-0.49;60.88
6464;BME280;3265;42.694;23.282;2023-02-08T13:06:54;96460.22;;;-0.39;60.86
6464;BME280;3265;42.694;23.282;2023-02-08T13:09:33;96477.69;;;-0.46;60.35
6464;BME280;3265;42.694;23.282;2023-02-08T13:12:05;96475.13;;;-0.33;59.66
6464;BME280;3265;42.694;23.282;2023-02-08T13:14:39;96483.25;;;-0.52;60.34
6464;BME280;3265;42.694;23.282;2023-02-08T13:17:13;96468.91;;;-0.91;60.63
6464;BME280;3265;42.694;23.282;2023-02-08T13:19:49;96473.78;;;-0.88;61.03
6464;BME280;3265;42.694;23.282;2023-02-08T13:22:16;96476.84;;;-0.70;60.47
6464;BME280;3265;42.694;23.282;2023-02-08T13:24:45;96476.72;;;-0.56;60.85
6464;BME280;3265;42.694;23.282;2023-02-08T13:27:16;96483.69;;;-0.34;60.62
6464;BME280;3265;42.694;23.282;2023-02-08T13:29:44;96464.38;;;-0.26;59.22
6464;BME280;3265;42.694;23.282;2023-02-08T13:32:17;96483.84;;;0.12;58.49
6464;BME280;3265;42.694;23.282;2023-02-08T13:34:50;96485.31;;;0.27;59.06
6464;BME280;3265;42.694;23.282;2023-02-08T13:37:21;96488.53;;;0.41;58.64